Cuttyhunk, Massachusetts
Current Conditions -  °F | °C
As of 10:53 PM on Sunday 25 Jan 2015 (Local Time) from KMVY Reporting Station
Clear Clear  
Wind Chill: 19°   Ceiling: Unl
Heat Index: 27°   Visibility: 10mi
Dew Point:   Wind: 8mph
Humidity: 45%   Direction: 330°NNW
Pressure: 29.98"   Gusts: NA
Location:  41.42°N, 70.93°W
Report Text: KMVY 260353Z AUTO 33007KT 10SM CLR M03/M13 A2998 RMK AO2 SLP153 T10281133
Loading
Personal Weather Stations






























Interactive Weather Map New forecast layout! Learn more

10-Day Weather Forecast

Advertisements
Track Severe Weather on mobile